createdAt,value
2019-05-19T00:00:41.640Z,78.39
2019-05-19T00:03:08.411Z,78.46
2019-05-19T00:05:35.199Z,78.68
2019-05-19T00:08:02.006Z,79.17
2019-05-19T00:10:28.579Z,79.03
2019-05-19T00:12:55.168Z,78.87
2019-05-19T00:15:21.975Z,78.88
2019-05-19T00:17:48.750Z,78.97
2019-05-19T00:20:15.632Z,79.25
2019-05-19T00:22:42.424Z,79.56
2019-05-19T00:25:09.502Z,79.92
2019-05-19T00:27:36.057Z,80.25
2019-05-19T00:30:03.303Z,80.88
2019-05-19T00:32:30.098Z,81.25
2019-05-19T00:34:56.681Z,80.65
2019-05-19T00:37:23.237Z,80.42
2019-05-19T00:39:49.906Z,80.59
2019-05-19T00:42:17.328Z,80.05
2019-05-19T00:44:44.102Z,80.12
2019-05-19T00:47:10.912Z,80.62
2019-05-19T00:49:41.466Z,81.24
2019-05-19T00:52:06.645Z,81.16
2019-05-19T00:54:33.348Z,81.05
2019-05-19T00:57:01.684Z,80.96
2019-05-19T00:59:29.072Z,81.02
2019-05-19T01:01:55.843Z,81.54
2019-05-19T01:04:22.522Z,81.54
2019-05-19T01:06:49.307Z,81.41
2019-05-19T01:09:16.069Z,81.47
2019-05-19T01:11:42.759Z,81.68
2019-05-19T01:14:09.477Z,82.03
2019-05-19T01:16:36.250Z,82.22
2019-05-19T01:19:03.423Z,82.24
2019-05-19T01:21:31.121Z,81.86
2019-05-19T01:23:57.933Z,81.75
2019-05-19T01:26:24.725Z,81.95
2019-05-19T01:28:51.309Z,82.27
2019-05-19T01:31:18.091Z,82.75
2019-05-19T01:33:44.673Z,82.94
2019-05-19T01:36:11.374Z,82.20
2019-05-19T01:38:38.149Z,81.96
2019-05-19T01:41:04.935Z,81.83
2019-05-19T01:43:31.635Z,81.68
2019-05-19T01:45:58.319Z,81.98
2019-05-19T01:48:27.904Z,82.18
2019-05-19T01:50:53.984Z,82.25
2019-05-19T01:53:20.738Z,82.14
2019-05-19T01:55:47.531Z,81.87
2019-05-19T01:58:14.311Z,81.92
2019-05-19T02:00:41.108Z,82.29
2019-05-19T02:03:07.892Z,82.35
2019-05-19T02:05:35.120Z,82.56
2019-05-19T02:08:01.898Z,82.57
2019-05-19T02:10:28.661Z,82.34
2019-05-19T02:12:55.440Z,82.40
2019-05-19T02:15:22.232Z,82.36
2019-05-19T02:17:49.324Z,82.45
2019-05-19T02:20:16.290Z,82.75
2019-05-19T02:22:48.540Z,82.99
2019-05-19T02:25:24.757Z,83.16
2019-05-19T02:27:55.456Z,83.27
2019-05-19T02:30:25.148Z,83.43
2019-05-19T02:32:52.997Z,83.48
2019-05-19T02:35:19.777Z,83.43
2019-05-19T02:37:46.562Z,83.49
2019-05-19T02:40:15.698Z,83.64
2019-05-19T02:42:45.352Z,83.65
2019-05-19T02:45:12.745Z,83.75
2019-05-19T02:47:41.597Z,83.89
2019-05-19T02:50:10.701Z,84.12
2019-05-19T02:52:40.037Z,84.60
2019-05-19T02:55:11.610Z,84.92
2019-05-19T02:57:40.911Z,85.12
2019-05-19T03:00:09.016Z,84.99
2019-05-19T03:02:35.717Z,85.00
2019-05-19T03:05:03.440Z,85.10
2019-05-19T03:07:30.333Z,85.16
2019-05-19T03:10:16.780Z,85.35
2019-05-19T03:12:43.474Z,85.40
2019-05-19T03:15:10.336Z,85.33
2019-05-19T03:17:36.924Z,85.60
2019-05-19T03:20:03.756Z,85.84
2019-05-19T03:22:30.558Z,86.12
2019-05-19T03:24:57.232Z,86.26
2019-05-19T03:27:24.003Z,85.79
2019-05-19T03:29:55.656Z,85.15
2019-05-19T03:32:40.470Z,84.86
2019-05-19T03:35:07.438Z,84.82
2019-05-19T03:37:34.017Z,83.63
2019-05-19T03:40:04.211Z,83.44
2019-05-19T03:42:30.898Z,83.01
2019-05-19T03:44:57.577Z,83.40
2019-05-19T03:47:24.264Z,83.79
2019-05-19T03:49:50.927Z,84.16
2019-05-19T03:52:17.526Z,84.47
2019-05-19T03:54:44.227Z,84.76
2019-05-19T03:57:10.814Z,84.94
2019-05-19T03:59:37.569Z,84.94
2019-05-19T04:02:04.357Z,84.98
2019-05-19T04:04:31.158Z,84.93
2019-05-19T04:06:57.833Z,84.97
2019-05-19T04:09:24.538Z,85.01
2019-05-19T04:11:51.195Z,85.61
2019-05-19T04:14:17.884Z,85.52
2019-05-19T04:16:44.538Z,85.44
2019-05-19T04:19:11.321Z,85.27
2019-05-19T04:21:48.044Z,84.87
2019-05-19T04:24:06.954Z,84.56
2019-05-19T04:26:33.623Z,84.29
2019-05-19T04:29:00.216Z,83.56
2019-05-19T04:31:27.018Z,83.29
2019-05-19T04:33:53.698Z,82.94
2019-05-19T04:36:20.527Z,82.23
2019-05-19T04:38:47.231Z,81.91
2019-05-19T04:41:13.992Z,81.79
2019-05-19T04:43:40.707Z,81.81
2019-05-19T04:46:07.364Z,81.25
2019-05-19T04:48:34.153Z,80.25
2019-05-19T04:51:00.817Z,79.64
2019-05-19T04:53:27.622Z,78.62
2019-05-19T04:55:54.404Z,77.48
2019-05-19T04:58:21.096Z,76.31
2019-05-19T05:00:47.770Z,75.68
2019-05-19T05:03:14.498Z,74.79
2019-05-19T05:05:41.180Z,74.80
2019-05-19T05:08:07.908Z,75.18
2019-05-19T05:10:34.583Z,74.28
2019-05-19T05:13:01.199Z,73.07
2019-05-19T05:15:28.010Z,72.62
2019-05-19T05:17:54.802Z,72.24
2019-05-19T05:20:21.616Z,70.09
2019-05-19T05:22:48.407Z,68.51
2019-05-19T05:25:15.176Z,66.73
2019-05-19T05:27:41.870Z,65.57
2019-05-19T05:30:09.315Z,64.07
2019-05-19T05:32:35.972Z,61.52
2019-05-19T05:35:02.835Z,60.63
2019-05-19T05:37:29.416Z,59.22
2019-05-19T05:39:56.018Z,56.83
2019-05-19T05:42:22.719Z,54.17
2019-05-19T05:44:49.513Z,50.88
2019-05-19T05:47:16.312Z,48.86
2019-05-19T05:49:43.106Z,47.22
2019-05-19T05:52:09.768Z,46.25
2019-05-19T05:54:36.574Z,44.00
2019-05-19T05:57:03.470Z,42.79
2019-05-19T05:59:30.268Z,41.06
2019-05-19T06:01:56.960Z,40.89
2019-05-19T06:04:23.764Z,41.11
2019-05-19T06:06:50.328Z,41.35
2019-05-19T06:09:17.062Z,39.54
2019-05-19T06:11:43.870Z,38.03
2019-05-19T06:14:10.587Z,37.17
2019-05-19T06:16:37.391Z,37.00
2019-05-19T06:19:04.058Z,37.37
2019-05-19T06:21:30.731Z,37.04
2019-05-19T06:23:57.422Z,39.00
2019-05-19T06:26:24.091Z,39.49
2019-05-19T06:28:50.786Z,37.68
2019-05-19T06:31:17.488Z,37.50
2019-05-19T06:33:44.189Z,34.83
2019-05-19T06:36:10.962Z,31.97
2019-05-19T06:38:37.682Z,33.72
2019-05-19T06:41:04.333Z,32.30
2019-05-19T06:43:31.083Z,33.17
2019-05-19T06:45:57.868Z,33.19
2019-05-19T06:48:24.633Z,32.36
2019-05-19T06:50:51.443Z,32.10
2019-05-19T06:53:18.117Z,32.10
2019-05-19T06:55:44.907Z,30.07
2019-05-19T06:58:11.584Z,28.32
2019-05-19T07:00:38.370Z,28.05
2019-05-19T07:03:05.031Z,27.36
2019-05-19T07:05:31.823Z,26.97
2019-05-19T07:07:58.493Z,28.51
2019-05-19T07:10:25.211Z,27.05
2019-05-19T07:12:51.978Z,29.23
2019-05-19T07:15:18.805Z,25.93
2019-05-19T07:17:45.411Z,24.78
2019-05-19T07:20:12.316Z,26.95
2019-05-19T07:22:38.990Z,29.07
2019-05-19T07:25:06.635Z,28.77
2019-05-19T07:27:33.410Z,26.00
2019-05-19T07:30:00.095Z,26.19
2019-05-19T07:32:26.720Z,27.09
2019-05-19T07:34:53.399Z,26.33
2019-05-19T07:37:20.074Z,24.40
2019-05-19T07:39:46.761Z,24.99
2019-05-19T07:42:13.564Z,25.54
2019-05-19T07:44:40.267Z,24.14
2019-05-19T07:47:06.961Z,21.88
2019-05-19T07:49:33.743Z,20.65
2019-05-19T07:52:00.363Z,21.87
2019-05-19T07:54:26.943Z,22.20
2019-05-19T07:56:53.751Z,23.17
2019-05-19T07:59:20.446Z,22.59
2019-05-19T08:01:47.161Z,23.17
2019-05-19T08:04:13.897Z,22.60
2019-05-19T08:06:40.514Z,22.90
2019-05-19T08:09:07.264Z,21.02
2019-05-19T08:11:34.061Z,21.05
2019-05-19T08:14:00.823Z,20.35
2019-05-19T08:16:27.659Z,20.59
2019-05-19T08:18:54.336Z,19.78
2019-05-19T08:21:21.026Z,18.42
2019-05-19T08:23:59.788Z,17.60
2019-05-19T08:26:16.706Z,15.88
2019-05-19T08:28:43.270Z,15.88
2019-05-19T08:31:10.066Z,17.05
2019-05-19T08:33:36.684Z,17.56
2019-05-19T08:36:03.502Z,17.20
2019-05-19T08:38:30.277Z,16.05
2019-05-19T08:40:57.127Z,16.27
2019-05-19T08:43:23.775Z,15.51
2019-05-19T08:45:50.572Z,18.04
2019-05-19T08:48:17.352Z,18.12
2019-05-19T08:50:44.035Z,17.22
2019-05-19T08:53:10.823Z,17.54
2019-05-19T08:55:37.658Z,22.33
2019-05-19T08:58:04.432Z,23.55
2019-05-19T09:00:34.933Z,22.80
2019-05-19T09:02:59.941Z,22.18
2019-05-19T09:05:26.626Z,20.07
2019-05-19T09:07:53.295Z,20.78
2019-05-19T09:10:21.295Z,20.45
2019-05-19T09:12:47.906Z,20.19
2019-05-19T09:15:14.993Z,21.71
2019-05-19T09:17:41.560Z,22.94
2019-05-19T09:20:08.756Z,21.61
2019-05-19T09:22:35.535Z,18.93
2019-05-19T09:25:02.485Z,17.85
2019-05-19T09:27:29.051Z,16.46
2019-05-19T09:29:55.809Z,15.53
2019-05-19T09:32:22.504Z,15.64
2019-05-19T09:34:49.072Z,16.31
2019-05-19T09:37:15.766Z,15.09
2019-05-19T09:39:42.477Z,14.59
2019-05-19T09:42:09.262Z,15.08
2019-05-19T09:44:36.054Z,16.48
2019-05-19T09:47:02.878Z,16.25
2019-05-19T09:49:33.308Z,14.97
2019-05-19T09:52:00.779Z,14.10
2019-05-19T09:54:28.195Z,13.63
2019-05-19T09:56:54.790Z,13.67
2019-05-19T09:59:21.463Z,15.36
2019-05-19T10:01:48.306Z,14.62
2019-05-19T10:04:15.065Z,12.72
2019-05-19T10:06:41.947Z,13.54
2019-05-19T10:09:33.116Z,13.06
2019-05-19T10:12:19.436Z,11.90
2019-05-19T10:14:46.104Z,11.76
2019-05-19T10:17:12.901Z,13.44
2019-05-19T10:19:39.682Z,16.51
2019-05-19T10:22:06.975Z,16.55
2019-05-19T10:24:34.083Z,14.42
2019-05-19T10:27:01.147Z,14.59
2019-05-19T10:29:27.948Z,14.60
2019-05-19T10:31:54.811Z,16.44
2019-05-19T10:34:21.485Z,18.78
2019-05-19T10:36:48.377Z,17.33
2019-05-19T10:39:15.159Z,18.54
2019-05-19T10:41:41.950Z,17.98
2019-05-19T10:44:08.731Z,16.45
2019-05-19T10:46:35.515Z,15.29
2019-05-19T10:49:02.308Z,19.58
2019-05-19T10:51:28.888Z,22.15
2019-05-19T10:53:55.553Z,20.46
2019-05-19T10:56:22.347Z,15.48
2019-05-19T10:58:49.117Z,13.38
2019-05-19T11:01:15.924Z,12.84
2019-05-19T11:03:42.712Z,12.27
2019-05-19T11:06:09.788Z,13.19
2019-05-19T11:08:36.485Z,13.52
2019-05-19T11:11:03.246Z,15.41
2019-05-19T11:13:29.927Z,16.93
2019-05-19T11:15:56.727Z,17.02
2019-05-19T11:18:23.505Z,15.08
2019-05-19T11:20:50.293Z,13.75
2019-05-19T11:23:16.970Z,14.68
2019-05-19T11:25:51.433Z,14.53
2019-05-19T11:28:12.240Z,12.94
2019-05-19T11:30:38.832Z,15.46
2019-05-19T11:33:05.611Z,16.98
2019-05-19T11:35:32.199Z,14.82
2019-05-19T11:37:58.887Z,16.32
2019-05-19T11:40:25.600Z,15.16
2019-05-19T11:42:52.323Z,16.82
2019-05-19T11:45:20.727Z,16.52
2019-05-19T11:47:47.402Z,15.58
2019-05-19T11:50:14.173Z,13.03
2019-05-19T11:52:40.865Z,11.99
2019-05-19T11:55:07.662Z,12.83
2019-05-19T11:57:34.425Z,11.30
2019-05-19T12:00:01.097Z,12.29
2019-05-19T12:02:27.701Z,11.17
2019-05-19T12:04:54.303Z,12.25
2019-05-19T12:07:20.895Z,14.17
2019-05-19T12:09:47.614Z,12.49
2019-05-19T12:12:14.300Z,12.16
2019-05-19T12:14:40.967Z,12.71
2019-05-19T12:17:07.958Z,12.77
2019-05-19T12:19:37.785Z,14.17
2019-05-19T12:22:04.518Z,15.92
2019-05-19T12:24:31.187Z,13.84
2019-05-19T12:26:57.995Z,11.71
2019-05-19T12:29:24.839Z,12.58
2019-05-19T12:31:52.103Z,11.51
2019-05-19T12:34:18.794Z,11.86
2019-05-19T12:36:45.573Z,11.47
2019-05-19T12:39:12.346Z,11.73
2019-05-19T12:41:39.024Z,10.52
2019-05-19T12:44:05.834Z,11.67
2019-05-19T12:46:32.613Z,12.88
2019-05-19T12:48:59.281Z,14.92
2019-05-19T12:51:27.004Z,11.53
2019-05-19T12:53:53.837Z,11.39
2019-05-19T12:56:20.594Z,12.06
2019-05-19T12:58:47.380Z,12.39
2019-05-19T13:01:14.063Z,10.61
2019-05-19T13:03:41.004Z,10.26
2019-05-19T13:06:07.629Z,11.14
2019-05-19T13:08:34.225Z,9.79
2019-05-19T13:11:00.926Z,10.13
2019-05-19T13:13:27.731Z,9.83
2019-05-19T13:15:54.440Z,8.36
2019-05-19T13:18:21.225Z,9.78
2019-05-19T13:20:47.989Z,10.02
2019-05-19T13:23:14.576Z,13.77
2019-05-19T13:25:41.140Z,13.23
2019-05-19T13:28:07.821Z,13.42
2019-05-19T13:30:34.583Z,13.99
2019-05-19T13:33:01.421Z,13.53
2019-05-19T13:35:28.139Z,12.91
2019-05-19T13:37:54.918Z,11.78
2019-05-19T13:40:21.591Z,12.68
2019-05-19T13:42:48.284Z,13.50
2019-05-19T13:45:15.069Z,12.61
2019-05-19T13:47:41.751Z,12.12
2019-05-19T13:50:09.050Z,12.26
2019-05-19T13:52:35.771Z,11.27
2019-05-19T13:55:02.959Z,11.62
2019-05-19T13:57:29.632Z,11.21
2019-05-19T13:59:56.427Z,11.38
2019-05-19T14:02:23.195Z,12.52
2019-05-19T14:04:49.902Z,12.85
2019-05-19T14:07:16.601Z,11.95
2019-05-19T14:09:43.220Z,12.29
2019-05-19T14:12:09.982Z,11.34
2019-05-19T14:14:36.685Z,9.86
2019-05-19T14:17:03.373Z,9.10
2019-05-19T14:19:30.124Z,8.66
2019-05-19T14:21:56.886Z,9.09
2019-05-19T14:24:23.582Z,9.24
2019-05-19T14:26:50.272Z,10.05
2019-05-19T14:29:17.109Z,8.57
2019-05-19T14:31:43.870Z,8.46
2019-05-19T14:34:10.685Z,9.09
2019-05-19T14:36:37.353Z,10.82
2019-05-19T14:39:06.068Z,13.15
2019-05-19T14:41:37.479Z,13.46
2019-05-19T14:44:04.338Z,13.01
2019-05-19T14:46:30.932Z,13.19
2019-05-19T14:48:57.621Z,12.34
2019-05-19T14:51:24.345Z,12.61
2019-05-19T14:53:51.213Z,12.73
2019-05-19T14:56:17.894Z,14.44
2019-05-19T14:58:44.560Z,14.15
2019-05-19T15:01:11.339Z,16.11
2019-05-19T15:03:37.920Z,18.76
2019-05-19T15:06:04.690Z,21.41
2019-05-19T15:08:31.358Z,23.13
2019-05-19T15:10:57.997Z,25.14
2019-05-19T15:13:24.926Z,26.35
2019-05-19T15:15:51.634Z,26.83
2019-05-19T15:18:18.407Z,26.94
2019-05-19T15:20:45.108Z,26.37
2019-05-19T15:23:12.109Z,26.19
2019-05-19T15:25:38.847Z,25.20
2019-05-19T15:28:05.769Z,20.93
2019-05-19T15:30:32.538Z,18.01
2019-05-19T15:32:59.209Z,15.58
2019-05-19T15:35:25.899Z,15.04
2019-05-19T15:37:52.668Z,14.73
2019-05-19T15:40:19.455Z,13.03
2019-05-19T15:42:46.132Z,13.76
2019-05-19T15:45:14.951Z,14.11
2019-05-19T15:47:41.620Z,16.74
2019-05-19T15:50:08.708Z,16.55
2019-05-19T15:52:35.365Z,16.06
2019-05-19T15:55:02.431Z,17.29
2019-05-19T15:57:28.996Z,20.36
2019-05-19T15:59:55.697Z,20.88
2019-05-19T16:02:22.267Z,20.63
2019-05-19T16:04:48.960Z,18.83
2019-05-19T16:07:15.743Z,17.34
2019-05-19T16:09:42.434Z,17.18
2019-05-19T16:12:09.122Z,16.80
2019-05-19T16:14:35.808Z,17.57
2019-05-19T16:17:02.625Z,18.06
2019-05-19T16:19:29.350Z,17.96
2019-05-19T16:21:55.924Z,18.04
2019-05-19T16:24:22.706Z,19.59
2019-05-19T16:26:49.512Z,21.43
2019-05-19T16:29:16.191Z,22.19
2019-05-19T16:31:43.767Z,23.46
2019-05-19T16:34:10.465Z,23.94
2019-05-19T16:36:37.236Z,23.63
2019-05-19T16:39:05.772Z,24.57
2019-05-19T16:41:32.587Z,23.48
2019-05-19T16:43:59.267Z,24.94
2019-05-19T16:46:25.958Z,25.54
2019-05-19T16:48:52.680Z,25.42
2019-05-19T16:51:19.365Z,25.45
2019-05-19T16:53:47.984Z,25.12
2019-05-19T16:56:14.678Z,25.74
2019-05-19T16:58:45.480Z,26.28
2019-05-19T17:01:10.076Z,26.53
2019-05-19T17:03:36.772Z,27.28
2019-05-19T17:06:03.562Z,27.58
2019-05-19T17:08:30.360Z,28.69
2019-05-19T17:10:57.054Z,29.00
2019-05-19T17:13:23.847Z,29.65
2019-05-19T17:15:50.516Z,30.28
2019-05-19T17:18:17.116Z,30.02
2019-05-19T17:20:44.359Z,30.51
2019-05-19T17:23:11.066Z,30.53
2019-05-19T17:25:37.833Z,30.81
2019-05-19T17:28:04.621Z,31.15
2019-05-19T17:30:31.312Z,31.13
2019-05-19T17:32:57.880Z,31.54
2019-05-19T17:35:24.577Z,31.45
2019-05-19T17:37:51.309Z,31.09
2019-05-19T17:40:59.042Z,30.55
2019-05-19T17:43:25.642Z,30.49
2019-05-19T17:45:52.437Z,31.10
2019-05-19T17:48:26.485Z,30.97
2019-05-19T17:50:47.793Z,30.93
2019-05-19T17:53:14.550Z,31.16
2019-05-19T17:55:42.642Z,31.45
2019-05-19T17:58:09.405Z,31.83
2019-05-19T18:00:39.856Z,31.21
2019-05-19T18:03:06.227Z,31.35
2019-05-19T18:05:32.972Z,31.60
2019-05-19T18:07:59.627Z,32.43
2019-05-19T18:10:26.423Z,32.29
2019-05-19T18:12:53.103Z,32.06
2019-05-19T18:15:19.876Z,32.38
2019-05-19T18:17:46.563Z,32.23
2019-05-19T18:20:23.490Z,33.22
2019-05-19T18:22:41.850Z,34.59
2019-05-19T18:25:08.655Z,34.25
2019-05-19T18:27:35.413Z,36.00
2019-05-19T18:30:02.294Z,35.86
2019-05-19T18:32:29.009Z,37.01
2019-05-19T18:34:55.584Z,37.27
2019-05-19T18:37:22.398Z,38.05
2019-05-19T18:39:49.155Z,37.98
2019-05-19T18:42:15.835Z,39.15
2019-05-19T18:44:42.615Z,40.14
2019-05-19T18:47:09.195Z,40.67
2019-05-19T18:49:35.963Z,41.42
2019-05-19T18:52:02.735Z,41.68
2019-05-19T18:54:29.295Z,42.08
2019-05-19T18:56:55.875Z,42.17
2019-05-19T18:59:22.487Z,43.43
2019-05-19T19:01:49.373Z,43.80
2019-05-19T19:04:16.132Z,44.78
2019-05-19T19:06:42.926Z,45.03
2019-05-19T19:09:09.896Z,45.33
2019-05-19T19:11:36.570Z,45.19
2019-05-19T19:14:03.387Z,45.59
2019-05-19T19:16:30.419Z,46.55
2019-05-19T19:18:57.105Z,45.81
2019-05-19T19:21:23.832Z,47.37
2019-05-19T19:23:50.511Z,47.40
2019-05-19T19:26:17.507Z,47.80
2019-05-19T19:28:44.167Z,47.45
2019-05-19T19:31:10.846Z,48.30
2019-05-19T19:33:37.674Z,48.14
2019-05-19T19:36:04.487Z,49.71
2019-05-19T19:38:31.163Z,47.76
2019-05-19T19:40:57.841Z,48.31
2019-05-19T19:43:24.670Z,49.08
2019-05-19T19:45:51.360Z,48.86
2019-05-19T19:48:18.144Z,49.72
2019-05-19T19:50:44.814Z,50.10
2019-05-19T19:53:11.510Z,50.96
2019-05-19T19:55:38.202Z,51.56
2019-05-19T19:58:04.902Z,52.08
2019-05-19T20:00:42.820Z,51.41
2019-05-19T20:03:31.010Z,51.62
2019-05-19T20:05:57.675Z,52.19
2019-05-19T20:08:24.404Z,52.91
2019-05-19T20:10:51.409Z,52.61
2019-05-19T20:13:19.788Z,52.46
2019-05-19T20:15:46.893Z,53.02
2019-05-19T20:18:13.589Z,53.90
2019-05-19T20:20:40.386Z,53.66
2019-05-19T20:23:07.298Z,53.76
2019-05-19T20:25:37.031Z,53.93
2019-05-19T20:28:02.796Z,54.40
2019-05-19T20:30:35.687Z,54.15
2019-05-19T20:32:58.132Z,54.78
2019-05-19T20:35:24.709Z,55.57
2019-05-19T20:37:51.432Z,55.61
2019-05-19T20:40:18.202Z,56.64
2019-05-19T20:42:45.017Z,56.80
2019-05-19T20:45:12.115Z,57.33
2019-05-19T20:47:38.922Z,57.67
2019-05-19T20:50:05.741Z,58.37
2019-05-19T20:52:32.357Z,58.49
2019-05-19T20:54:59.131Z,59.18
2019-05-19T20:57:25.830Z,59.20
2019-05-19T20:59:52.669Z,59.08
2019-05-19T21:02:19.641Z,59.99
2019-05-19T21:04:46.349Z,60.28
2019-05-19T21:07:13.124Z,60.72
2019-05-19T21:09:39.719Z,60.94
2019-05-19T21:12:06.282Z,61.10
2019-05-19T21:14:32.875Z,60.78
2019-05-19T21:16:59.455Z,60.35
2019-05-19T21:19:26.060Z,60.98
2019-05-19T21:21:52.739Z,60.73
2019-05-19T21:24:19.429Z,59.85
2019-05-19T21:26:46.101Z,60.11
2019-05-19T21:29:12.786Z,60.36
2019-05-19T21:31:39.472Z,59.97
2019-05-19T21:34:06.267Z,60.31
2019-05-19T21:36:32.940Z,60.86
2019-05-19T21:38:59.624Z,61.01
2019-05-19T21:41:26.439Z,61.29
2019-05-19T21:43:53.054Z,61.95
2019-05-19T21:46:19.755Z,62.39
2019-05-19T21:48:46.477Z,62.85
2019-05-19T21:51:13.275Z,63.08
2019-05-19T21:53:40.076Z,63.26
2019-05-19T21:56:06.865Z,63.21
2019-05-19T21:58:33.661Z,63.32
2019-05-19T22:01:00.440Z,63.84
2019-05-19T22:03:27.271Z,63.69
2019-05-19T22:05:54.063Z,63.92
2019-05-19T22:08:20.860Z,63.95
2019-05-19T22:10:47.692Z,63.57
2019-05-19T22:13:34.100Z,63.61
2019-05-19T22:16:20.499Z,63.83
2019-05-19T22:18:47.302Z,63.70
2019-05-19T22:21:33.593Z,63.80
2019-05-19T22:24:00.313Z,63.37
2019-05-19T22:26:27.019Z,62.79
2019-05-19T22:28:53.748Z,62.70
2019-05-19T22:31:20.437Z,62.53
2019-05-19T22:33:47.117Z,62.31
2019-05-19T22:36:13.798Z,62.37
2019-05-19T22:38:40.607Z,62.54
2019-05-19T22:41:07.290Z,63.62
2019-05-19T22:43:34.078Z,63.90
2019-05-19T22:46:00.862Z,63.61
2019-05-19T22:48:27.592Z,64.09
2019-05-19T22:50:54.321Z,64.39
2019-05-19T22:53:20.986Z,64.24
2019-05-19T22:55:47.808Z,64.22
2019-05-19T22:58:14.490Z,64.46
2019-05-19T23:01:00.937Z,64.56
2019-05-19T23:03:27.622Z,64.48
2019-05-19T23:05:54.289Z,64.52
2019-05-19T23:08:21.092Z,64.49
2019-05-19T23:10:47.930Z,65.90
2019-05-19T23:13:14.731Z,66.15
2019-05-19T23:15:41.534Z,66.37
2019-05-19T23:18:08.318Z,66.28
2019-05-19T23:20:35.020Z,66.92
2019-05-19T23:23:01.570Z,67.33
2019-05-19T23:25:28.571Z,67.78
2019-05-19T23:27:55.158Z,68.22
2019-05-19T23:30:21.840Z,68.69
2019-05-19T23:32:48.522Z,68.21
2019-05-19T23:35:15.307Z,68.78
2019-05-19T23:37:41.952Z,69.20
2019-05-19T23:40:09.449Z,69.47
2019-05-19T23:42:36.245Z,69.74
2019-05-19T23:45:03.451Z,69.83
2019-05-19T23:47:30.140Z,70.17
2019-05-19T23:49:56.905Z,70.40
2019-05-19T23:52:23.679Z,70.83
2019-05-19T23:54:51.659Z,71.33
2019-05-19T23:57:18.350Z,71.08
2019-05-19T23:59:45.199Z,71.33
